Time;durP1;ratioP1;P1;durP2;ratioP2;P2;SDS_P1;SDS_P2;PMS_P1;PMS_P2;Temp;Humidity;BMP_temperature;BMP_pressure;BME280_temperature;BME280_humidity;BME280_pressure;Samples;Min_cycle;Max_cycle;Signal;HPM_P1;HPM_P2
2022/10/04 00:01:53;;;;;;;3.23;3.03;;;;;;;12.00;79.09;95070.25;5031643;28;20438;-76
2022/10/04 00:04:26;;;;;;;3.30;3.10;;;;;;;12.02;78.87;95065.69;5031600;28;20454;-77
2022/10/04 00:06:59;;;;;;;4.93;3.20;;;;;;;11.98;78.99;95069.53;5031355;28;20450;-77
2022/10/04 00:09:32;;;;;;;10.20;3.50;;;;;;;11.96;78.78;95082.00;5031645;28;20477;-77
2022/10/04 00:12:02;;;;;;;3.47;3.17;;;;;;;11.97;80.07;95081.03;5031121;28;20491;-77
2022/10/04 00:14:31;;;;;;;3.67;2.73;;;;;;;11.98;80.93;95077.44;5072483;28;20487;-76
2022/10/04 00:16:59;;;;;;;3.30;3.00;;;;;;;11.91;80.19;95081.56;5073568;28;20440;-76
2022/10/04 00:19:43;;;;;;;4.50;3.20;;;;;;;11.88;79.71;95084.47;5073672;28;20448;-77
2022/10/04 00:22:21;;;;;;;3.13;2.80;;;;;;;11.85;79.82;95080.28;5069464;28;20463;-76
2022/10/04 00:25:17;;;;;;;3.30;2.93;;;;;;;11.87;79.42;95072.28;5071343;28;20451;-76
2022/10/04 00:28:24;;;;;;;3.03;2.83;;;;;;;11.83;79.25;95076.97;5073403;28;20433;-76
2022/10/04 00:31:24;;;;;;;4.73;2.83;;;;;;;11.79;79.21;95071.13;5073352;28;20472;-76
2022/10/04 00:33:54;;;;;;;3.70;2.83;;;;;;;11.78;78.92;95064.22;5073168;28;20539;-76
2022/10/04 00:36:54;;;;;;;3.23;2.83;;;;;;;11.78;78.07;95064.22;5073533;28;20467;-76
2022/10/04 00:39:44;;;;;;;2.70;2.20;;;;;;;11.79;78.21;95065.88;4991795;28;20451;-76
2022/10/04 00:42:47;;;;;;;3.53;2.70;;;;;;;11.82;77.64;95050.81;4991515;28;20456;-77
2022/10/04 00:45:39;;;;;;;2.80;2.60;;;;;;;11.88;76.54;95058.19;4959029;28;21008;-76
2022/10/04 00:48:24;;;;;;;2.67;2.47;;;;;;;11.88;77.21;95058.19;4933530;29;20957;-77
2022/10/04 00:50:56;;;;;;;4.00;2.70;;;;;;;11.84;75.88;95054.97;4936437;29;21028;-76
2022/10/04 00:53:36;;;;;;;3.10;2.90;;;;;;;11.89;75.88;95037.00;4920511;29;20493;-76
2022/10/04 00:56:09;;;;;;;2.53;2.33;;;;;;;11.97;76.77;95044.22;4952273;28;20934;-77
2022/10/04 00:58:40;;;;;;;2.60;2.40;;;;;;;12.00;75.50;95033.41;4952476;28;20446;-77
2022/10/04 01:01:09;;;;;;;4.23;2.60;;;;;;;11.97;75.36;95036.31;4920626;28;20446;-78
2022/10/04 01:03:42;;;;;;;2.60;2.40;;;;;;;11.99;74.28;95035.22;4952255;28;20453;-77
2022/10/04 01:06:12;;;;;;;4.07;2.70;;;;;;;11.96;73.36;95037.28;4952470;29;20453;-77
2022/10/04 01:08:44;;;;;;;3.00;2.80;;;;;;;12.02;72.93;95042.00;4952280;28;20450;-77
2022/10/04 01:11:16;;;;;;;2.30;2.20;;;;;;;11.99;73.68;95037.03;5019695;28;20536;-77
2022/10/04 01:13:48;;;;;;;4.57;2.53;;;;;;;11.98;73.20;95044.09;5030304;28;20460;-76
2022/10/04 01:16:18;;;;;;;2.43;2.23;;;;;;;11.99;72.60;95044.91;5030187;28;20934;-77
2022/10/04 01:18:47;;;;;;;3.80;3.03;;;;;;;11.95;72.77;95043.53;5030084;28;20454;-77
2022/10/04 01:21:27;;;;;;;3.20;2.40;;;;;;;11.96;73.40;95045.19;4997553;28;20484;-76
2022/10/04 01:24:21;;;;;;;2.57;2.37;;;;;;;11.91;73.04;95042.13;5031080;28;20531;-76
2022/10/04 01:26:48;;;;;;;2.50;2.30;;;;;;;11.82;75.15;95029.75;5112703;28;20495;-77
2022/10/04 01:29:17;;;;;;;2.50;2.30;;;;;;;11.78;74.50;95030.03;5112979;28;20487;-76
2022/10/04 01:31:46;;;;;;;2.93;2.63;;;;;;;11.72;74.72;95027.91;5112956;28;20503;-77
2022/10/04 01:34:16;;;;;;;2.30;2.20;;;;;;;11.74;74.55;95033.88;5112571;28;20856;-77
2022/10/04 01:36:46;;;;;;;2.97;2.70;;;;;;;11.73;74.09;95045.34;5112856;28;20445;-76
2022/10/04 01:39:15;;;;;;;2.23;2.10;;;;;;;11.71;74.39;95039.41;5112707;28;20441;-77
2022/10/04 01:41:47;;;;;;;2.67;2.40;;;;;;;11.77;74.71;95033.59;5112756;28;20978;-77
2022/10/04 01:44:24;;;;;;;2.87;2.67;;;;;;;11.67;73.93;95038.00;5112986;28;20500;-77
2022/10/04 01:46:54;;;;;;;3.23;2.30;;;;;;;11.64;73.97;95033.03;5076842;28;20444;-76
2022/10/04 01:49:26;;;;;;;2.53;2.40;;;;;;;11.68;74.60;95031.78;5112705;28;20442;-76
2022/10/04 01:51:57;;;;;;;2.70;2.40;;;;;;;11.64;74.17;95037.44;5076432;28;20478;-76
2022/10/04 01:54:33;;;;;;;2.73;2.53;;;;;;;11.67;74.34;95030.13;5059720;28;20434;-76
2022/10/04 01:57:07;;;;;;;4.90;4.47;;;;;;;11.65;74.86;95031.22;5112661;28;20450;-77
2022/10/04 01:59:42;;;;;;;2.97;2.30;;;;;;;11.61;73.27;95035.09;5112899;28;20477;-76
2022/10/04 02:02:18;;;;;;;2.80;2.60;;;;;;;11.60;75.53;95036.06;5112365;28;20951;-76
2022/10/04 02:04:52;;;;;;;3.93;2.47;;;;;;;11.61;73.95;95040.34;5112442;28;20860;-76
2022/10/04 02:10:45;;;;;;;4.57;2.70;;;;;;;11.58;74.72;95051.13;5112226;28;20433;-76
2022/10/04 02:13:17;;;;;;;3.03;2.67;;;;;;;11.59;74.44;95051.00;5112514;28;20454;-77
2022/10/04 02:15:46;;;;;;;5.30;2.60;;;;;;;11.56;74.36;95048.59;5112083;28;20485;-76
2022/10/04 02:18:14;;;;;;;7.77;2.40;;;;;;;11.57;76.41;95049.47;5112366;28;20450;-77
2022/10/04 02:20:43;;;;;;;4.27;2.27;;;;;;;11.59;75.32;95058.03;5112269;28;20445;-77
2022/10/04 02:23:12;;;;;;;2.77;2.30;;;;;;;11.55;75.38;95056.63;5112233;28;20443;-76
2022/10/04 02:25:39;;;;;;;5.17;2.30;;;;;;;11.55;77.88;95052.19;5112463;28;20453;-76
2022/10/04 02:28:11;;;;;;;2.77;2.40;;;;;;;11.51;78.27;95058.69;5112077;28;20434;-76
2022/10/04 02:30:40;;;;;;;2.40;2.20;;;;;;;11.47;77.35;95057.28;5112032;28;20453;-76
2022/10/04 02:33:06;;;;;;;2.60;2.40;;;;;;;11.46;78.31;95071.38;5112142;28;20467;-77
2022/10/04 02:35:37;;;;;;;3.57;3.30;;;;;;;11.45;77.92;95067.09;5112958;28;20488;-77
2022/10/04 02:38:10;;;;;;;2.50;2.30;;;;;;;11.48;78.07;95059.78;5116336;28;20532;-76
2022/10/04 02:40:44;;;;;;;2.73;2.53;;;;;;;11.49;77.78;95068.50;5116171;28;20445;-76
2022/10/04 02:43:19;;;;;;;2.67;2.47;;;;;;;11.55;77.93;95077.63;5115804;28;20495;-76
2022/10/04 02:45:51;;;;;;;2.80;2.60;;;;;;;11.54;78.20;95070.72;5116109;28;20445;-76
2022/10/04 02:48:38;;;;;;;3.67;2.27;;;;;;;11.52;78.94;95083.16;5115952;28;20457;-77
2022/10/04 02:51:17;;;;;;;3.20;2.77;;;;;;;11.57;77.79;95092.34;5115728;28;20888;-76
2022/10/04 02:53:51;;;;;;;7.30;3.30;;;;;;;11.53;78.52;95096.16;5116001;28;20496;-77
2022/10/04 02:56:19;;;;;;;6.23;3.20;;;;;;;11.59;78.93;95100.09;5115493;28;20489;-75
2022/10/04 02:58:48;;;;;;;3.57;3.10;;;;;;;11.57;78.81;95091.50;5115990;28;20780;-77
2022/10/04 03:01:24;;;;;;;4.20;3.10;;;;;;;11.58;80.38;95091.38;5063131;28;20450;-75
2022/10/04 03:03:51;;;;;;;3.00;2.80;;;;;;;11.62;81.04;95090.16;5115273;28;20481;-77
2022/10/04 03:06:21;;;;;;;2.87;2.37;;;;;;;11.61;79.65;95099.00;5079791;28;20449;-77
2022/10/04 03:08:53;;;;;;;3.40;2.90;;;;;;;11.67;80.65;95098.47;5115531;28;20446;-78
2022/10/04 03:11:22;;;;;;;3.57;3.30;;;;;;;11.67;79.43;95100.25;5115453;28;20450;-75
2022/10/04 03:13:52;;;;;;;3.63;3.33;;;;;;;11.68;79.27;95096.66;5113847;28;20464;-78
2022/10/04 03:16:20;;;;;;;3.07;2.67;;;;;;;11.66;78.89;95098.59;5101184;28;20490;-78
2022/10/04 03:18:49;;;;;;;4.67;3.03;;;;;;;11.61;80.00;95108.69;5095062;28;20443;-78
2022/10/04 03:21:19;;;;;;;5.50;2.80;;;;;;;11.60;80.05;95105.22;5105933;28;20462;-77
2022/10/04 03:23:47;;;;;;;2.97;2.70;;;;;;;11.59;79.73;95106.19;5112014;28;20802;-77
2022/10/04 03:26:27;;;;;;;2.80;2.60;;;;;;;11.56;79.50;95105.59;5115172;28;20446;-77
2022/10/04 03:28:56;;;;;;;2.83;2.60;;;;;;;11.62;79.93;95113.81;5107551;28;20480;-77
2022/10/04 03:31:25;;;;;;;5.57;2.47;;;;;;;11.65;80.55;95105.66;5115470;28;20860;-78
2022/10/04 03:33:54;;;;;;;2.83;2.63;;;;;;;11.61;79.07;95109.50;5078922;28;20438;-77
2022/10/04 03:36:22;;;;;;;8.43;2.67;;;;;;;11.64;80.39;95106.63;5115272;28;20470;-77
2022/10/04 03:38:52;;;;;;;4.37;2.40;;;;;;;11.65;79.31;95124.06;5079071;28;20435;-77
2022/10/04 03:41:20;;;;;;;5.43;2.50;;;;;;;11.71;79.34;95115.63;5114994;28;20503;-78
2022/10/04 03:43:49;;;;;;;3.83;2.50;;;;;;;11.76;77.77;95121.31;5115033;28;20496;-78
2022/10/04 03:46:19;;;;;;;2.60;2.40;;;;;;;11.82;78.10;95127.03;5115234;28;20443;-77
2022/10/04 03:48:49;;;;;;;4.33;2.50;;;;;;;11.84;78.08;95122.50;5114047;28;20442;-77
2022/10/04 03:51:20;;;;;;;3.13;2.80;;;;;;;11.78;77.69;95122.06;5115019;28;20524;-77
2022/10/04 03:53:49;;;;;;;4.00;2.80;;;;;;;11.81;77.88;95125.38;5114487;28;20816;-77
2022/10/04 03:56:19;;;;;;;2.60;2.40;;;;;;;11.83;78.43;95123.47;5063570;28;21015;-77
2022/10/04 03:58:47;;;;;;;7.17;3.43;;;;;;;11.83;78.41;95129.53;5114925;28;20934;-78
2022/10/04 04:01:30;;;;;;;3.17;2.97;;;;;;;11.78;77.89;95121.22;5114783;28;20690;-78
2022/10/04 04:04:05;;;;;;;5.17;3.00;;;;;;;11.85;78.19;95132.88;5114616;28;20507;-79
2022/10/04 04:06:40;;;;;;;4.80;2.70;;;;;;;11.89;78.76;95126.41;5114733;28;20482;-80
2022/10/04 04:09:09;;;;;;;3.00;2.80;;;;;;;11.86;78.32;95125.84;5114431;28;20485;-78
2022/10/04 04:11:36;;;;;;;4.23;3.40;;;;;;;11.89;78.14;95131.66;5114445;28;20444;-78
2022/10/04 04:14:09;;;;;;;5.30;2.97;;;;;;;11.72;77.98;95129.63;5114645;28;20502;-78
2022/10/04 04:16:38;;;;;;;3.37;3.10;;;;;;;11.57;79.71;95134.41;5114268;28;20497;-78
2022/10/04 04:19:12;;;;;;;4.30;3.50;;;;;;;11.52;79.39;95141.81;5114533;28;20515;-78
2022/10/04 04:21:39;;;;;;;3.20;3.00;;;;;;;11.44;78.66;95144.25;5112785;28;20454;-77
2022/10/04 04:24:14;;;;;;;3.33;3.03;;;;;;;11.36;79.42;95142.28;5106977;28;20511;-78
2022/10/04 04:26:43;;;;;;;3.33;3.10;;;;;;;11.32;80.55;95142.66;5106719;28;20445;-76
2022/10/04 04:29:18;;;;;;;4.87;3.50;;;;;;;11.32;80.00;95150.56;5113947;28;20512;-76
2022/10/04 04:31:52;;;;;;;3.53;3.23;;;;;;;11.28;80.33;95151.78;5113593;28;21014;-77
2022/10/04 04:34:23;;;;;;;4.40;3.47;;;;;;;11.30;80.12;95160.34;5113825;28;20447;-77
2022/10/04 04:36:54;;;;;;;5.77;3.90;;;;;;;11.26;80.70;95158.91;5112831;28;20580;-77
2022/10/04 04:39:36;;;;;;;3.63;3.33;;;;;;;11.29;80.43;95158.69;5113237;28;20450;-77
2022/10/04 04:42:06;;;;;;;4.97;3.67;;;;;;;11.47;83.08;95155.34;5068114;28;20453;-78
2022/10/04 04:44:33;;;;;;;3.90;3.60;;;;;;;11.51;81.52;95157.72;5114225;28;20533;-77
2022/10/04 04:47:01;;;;;;;3.33;3.07;;;;;;;11.58;80.09;95157.09;5114652;28;20478;-78
2022/10/04 04:49:30;;;;;;;3.30;3.10;;;;;;;11.67;80.79;95153.66;5114262;28;20454;-77
2022/10/04 04:51:57;;;;;;;3.90;3.60;;;;;;;11.66;79.02;95159.88;5113889;28;20478;-76
2022/10/04 04:54:27;;;;;;;3.57;3.27;;;;;;;11.76;79.27;95157.31;5113809;28;20509;-76
2022/10/04 04:56:56;;;;;;;6.23;3.90;;;;;;;11.76;79.10;95163.38;5061097;28;20573;-76
2022/10/04 04:59:25;;;;;;;3.87;3.57;;;;;;;11.84;81.78;95157.50;5113092;28;20492;-76
2022/10/04 05:01:52;;;;;;;4.90;3.67;;;;;;;11.88;79.26;95163.34;5113912;28;20454;-77
2022/10/04 05:04:22;;;;;;;12.73;3.80;;;;;;;11.81;78.75;95162.19;5113641;28;20457;-76
2022/10/04 05:07:01;;;;;;;7.47;3.67;;;;;;;11.79;79.27;95164.94;5114230;28;20454;-77
2022/10/04 05:09:30;;;;;;;7.20;4.60;;;;;;;11.85;82.74;95158.34;5110631;28;20509;-76
2022/10/04 05:12:06;;;;;;;4.07;3.77;;;;;;;12.01;81.95;95169.22;5106425;28;20933;-76
2022/10/04 05:14:34;;;;;;;4.43;3.70;;;;;;;11.99;78.08;95161.47;5110873;28;20524;-76
2022/10/04 05:17:00;;;;;;;6.60;3.50;;;;;;;12.16;77.87;95169.72;5102940;28;20482;-76
2022/10/04 05:19:32;;;;;;;5.10;3.63;;;;;;;12.81;80.70;95163.06;5046231;28;20447;-76
2022/10/04 05:22:01;;;;;;;4.03;3.73;;;;;;;13.42;76.11;95168.94;5108636;28;20832;-76
2022/10/04 05:24:31;;;;;;;3.87;3.07;;;;;;;13.94;70.21;95170.22;5112973;28;20579;-75
2022/10/04 05:27:01;;;;;;;3.87;3.53;;;;;;;14.22;68.08;95173.72;5112593;28;20836;-76
2022/10/04 05:29:31;;;;;;;5.03;3.50;;;;;;;14.70;72.40;95180.59;5112995;28;20784;-77
2022/10/04 05:32:09;;;;;;;7.83;2.97;;;;;;;15.16;66.60;95181.41;5112669;28;20524;-76
2022/10/04 05:34:41;;;;;;;3.30;3.00;;;;;;;15.52;64.58;95184.03;5103615;28;20934;-77
2022/10/04 05:37:24;;;;;;;3.60;3.30;;;;;;;15.79;75.11;95191.88;5100687;28;20527;-76
2022/10/04 05:40:02;;;;;;;3.30;2.93;;;;;;;15.77;63.82;95193.84;5112483;28;20500;-77
2022/10/04 05:42:37;;;;;;;3.20;3.00;;;;;;;15.81;62.22;95189.91;5113471;28;20492;-76
2022/10/04 05:45:15;;;;;;;4.03;3.00;;;;;;;16.14;64.34;95200.72;5107469;28;20483;-77
2022/10/04 05:47:43;;;;;;;3.00;2.80;;;;;;;15.91;62.21;95193.31;5101274;28;20482;-76
2022/10/04 05:50:17;;;;;;;4.43;3.00;;;;;;;15.94;66.57;95205.41;5111646;28;20431;-77
2022/10/04 05:52:46;;;;;;;4.83;3.00;;;;;;;15.70;63.42;95209.53;5100997;28;20318;-78
2022/10/04 05:55:28;;;;;;;3.70;3.20;;;;;;;16.11;62.70;95207.16;5105696;28;20454;-78
2022/10/04 05:58:19;;;;;;;3.40;3.10;;;;;;;16.11;62.92;95215.94;5092671;28;20485;-77
2022/10/04 06:01:09;;;;;;;4.70;3.20;;;;;;;15.85;61.30;95215.09;5093427;28;20441;-76
2022/10/04 06:03:57;;;;;;;5.70;3.50;;;;;;;15.48;62.93;95209.97;5091511;28;20523;-76
2022/10/04 06:06:35;;;;;;;3.40;2.90;;;;;;;15.14;63.30;95223.03;5092870;28;20209;-76
2022/10/04 06:09:19;;;;;;;4.47;2.93;;;;;;;14.88;64.86;95226.38;5092509;28;20441;-76
2022/10/04 06:12:00;;;;;;;3.80;3.50;;;;;;;14.50;67.49;95219.50;5096045;28;20455;-76
2022/10/04 06:14:42;;;;;;;3.90;3.60;;;;;;;14.23;67.33;95222.91;5097066;28;20530;-76
2022/10/04 06:17:34;;;;;;;3.53;3.13;;;;;;;14.05;67.73;95229.91;5044198;28;21012;-76
2022/10/04 06:20:35;;;;;;;5.67;5.17;;;;;;;13.85;68.69;95241.44;5096718;28;20439;-76
2022/10/04 06:23:11;;;;;;;5.37;3.77;;;;;;;13.74;69.53;95246.88;5096408;28;20793;-76
2022/10/04 06:25:45;;;;;;;4.17;3.63;;;;;;;13.82;69.78;95242.56;5096024;28;20441;-75
2022/10/04 06:28:19;;;;;;;7.27;3.50;;;;;;;13.81;71.25;95253.25;5045638;28;20791;-76
2022/10/04 06:31:02;;;;;;;4.30;3.30;;;;;;;13.71;70.53;95248.00;5095896;28;20472;-75
2022/10/04 06:33:55;;;;;;;6.33;3.57;;;;;;;13.79;69.63;95245.50;5095963;28;20531;-76
2022/10/04 06:36:43;;;;;;;3.90;3.60;;;;;;;13.74;73.04;95247.72;5095806;28;20491;-76
2022/10/04 06:39:31;;;;;;;4.40;3.87;;;;;;;13.90;70.22;95263.00;5096205;28;20439;-76
2022/10/04 06:42:32;;;;;;;3.73;3.47;;;;;;;13.88;69.42;95257.03;5095812;28;20505;-76
2022/10/04 06:45:28;;;;;;;4.40;4.00;;;;;;;13.73;68.86;95251.34;5095873;28;20988;-76
2022/10/04 06:48:30;;;;;;;3.53;3.33;;;;;;;13.72;68.80;95254.94;5095842;28;20488;-76
2022/10/04 06:51:05;;;;;;;4.30;3.90;;;;;;;13.63;69.25;95253.16;5012265;28;20493;-76
2022/10/04 06:53:44;;;;;;;4.13;3.83;;;;;;;13.56;70.36;95258.13;4997485;28;20453;-76
2022/10/04 06:56:26;;;;;;;4.43;4.03;;;;;;;13.59;70.03;95263.16;5013207;28;20451;-76
2022/10/04 06:59:17;;;;;;;5.27;4.77;;;;;;;13.93;70.20;95263.53;5013381;28;20455;-76
2022/10/04 07:01:50;;;;;;;3.50;3.30;;;;;;;14.23;68.06;95264.31;5013022;28;20447;-77
2022/10/04 07:04:28;;;;;;;3.97;3.67;;;;;;;14.62;67.11;95262.38;4980365;28;20905;-76
2022/10/04 07:07:25;;;;;;;4.43;2.90;;;;;;;14.76;65.35;95264.56;4980692;28;20457;-77
2022/10/04 07:09:57;;;;;;;3.77;2.93;;;;;;;14.69;63.95;95260.81;4996474;28;20436;-76
2022/10/04 07:12:27;;;;;;;4.07;3.77;;;;;;;14.62;65.49;95269.47;5012903;28;20488;-76
2022/10/04 07:15:00;;;;;;;5.53;4.00;;;;;;;14.79;65.94;95272.19;5013006;28;20899;-77
2022/10/04 07:17:32;;;;;;;6.90;4.93;;;;;;;14.72;65.78;95275.53;5012874;28;20490;-76
2022/10/04 07:20:01;;;;;;;6.63;4.30;;;;;;;14.50;66.03;95271.47;4996281;28;20503;-76
2022/10/04 07:22:34;;;;;;;8.00;3.90;;;;;;;14.52;67.47;95275.63;5011860;28;20475;-76
2022/10/04 07:25:13;;;;;;;5.20;4.23;;;;;;;14.35;66.73;95273.72;4964059;28;20435;-76
2022/10/04 07:29:19;;;;;;;3.73;3.43;;;;;;;14.22;67.41;95276.66;5046933;28;20488;-76
2022/10/04 07:30:44;;;;;;;5.83;3.97;;;;;;;13.95;68.06;95284.50;5054383;28;20476;-76
2022/10/04 07:33:16;;;;;;;3.50;3.13;;;;;;;13.95;69.19;95289.78;5094971;28;20499;-76
2022/10/04 07:35:47;;;;;;;8.57;4.50;;;;;;;13.78;68.88;95288.66;5094879;28;20452;-77
2022/10/04 07:38:21;;;;;;;3.67;3.37;;;;;;;13.88;70.32;95289.50;5094734;28;20928;-76
2022/10/04 07:41:06;;;;;;;3.80;3.60;;;;;;;13.92;67.57;95288.25;5094609;28;20443;-76
2022/10/04 07:43:40;;;;;;;2.97;2.77;;;;;;;13.97;67.50;95285.19;5059937;28;20906;-76
2022/10/04 07:46:17;;;;;;;5.23;3.03;;;;;;;13.90;66.92;95299.91;5094702;28;20443;-76
2022/10/04 07:48:47;;;;;;;7.23;3.80;;;;;;;13.86;68.04;95293.22;5094351;28;20809;-75
2022/10/04 07:51:26;;;;;;;5.10;3.53;;;;;;;13.83;67.75;95289.06;5043579;28;20483;-75
2022/10/04 07:54:00;;;;;;;3.20;3.00;;;;;;;13.80;66.29;95285.88;5094402;28;20786;-76
2022/10/04 07:56:34;;;;;;;3.60;3.30;;;;;;;13.77;66.91;95289.63;5094695;28;20489;-76
2022/10/04 07:59:25;;;;;;;3.60;3.30;;;;;;;13.74;65.86;95304.91;5094273;28;20448;-76
2022/10/04 08:02:01;;;;;;;3.57;3.37;;;;;;;13.62;66.01;95291.88;5094375;28;20783;-76
2022/10/04 08:04:38;;;;;;;4.77;3.80;;;;;;;13.74;66.83;95304.91;5094525;28;20504;-76
2022/10/04 08:07:15;;;;;;;3.90;3.60;;;;;;;13.69;66.81;95293.97;5094123;28;20448;-76
2022/10/04 08:09:59;;;;;;;3.07;2.87;;;;;;;13.71;67.00;95306.03;5093981;28;20975;-77
2022/10/04 08:12:37;;;;;;;3.90;3.60;;;;;;;13.59;66.74;95302.72;5093944;28;20483;-76
2022/10/04 08:15:38;;;;;;;3.60;3.40;;;;;;;13.53;66.89;95295.31;5097250;28;20836;-77
2022/10/04 08:18:21;;;;;;;3.70;3.50;;;;;;;13.69;67.09;95301.88;5014028;28;20490;-76
2022/10/04 08:20:53;;;;;;;4.07;3.77;;;;;;;13.81;67.73;95298.09;5011696;28;20447;-76
2022/10/04 08:23:44;;;;;;;5.70;4.23;;;;;;;13.99;66.33;95300.88;5011363;28;20521;-76
2022/10/04 08:26:23;;;;;;;4.20;3.47;;;;;;;14.09;66.17;95304.31;5011546;28;20444;-76
2022/10/04 08:32:03;;;;;;;9.33;6.93;;;;;;;14.49;64.39;95297.06;5011404;28;20427;-77
2022/10/04 08:34:45;;;;;;;5.77;5.37;;;;;;;14.54;63.90;95296.63;5011116;28;20481;-77
2022/10/04 08:37:24;;;;;;;3.27;2.97;;;;;;;14.43;63.18;95286.22;5011207;28;20561;-76
2022/10/04 08:40:10;;;;;;;3.63;3.23;;;;;;;14.51;65.17;95283.72;5011168;28;20987;-77
2022/10/04 08:43:15;;;;;;;3.43;2.80;;;;;;;14.78;62.06;95278.47;5011396;28;20447;-76
2022/10/04 08:46:10;;;;;;;2.90;2.70;;;;;;;15.12;61.98;95280.50;5011223;28;20444;-77
2022/10/04 08:49:05;;;;;;;2.80;2.50;;;;;;;15.41;60.19;95283.78;5011021;28;20455;-76
2022/10/04 08:52:16;;;;;;;4.20;3.90;;;;;;;15.57;58.64;95285.75;5010658;28;20475;-76
2022/10/04 08:55:31;;;;;;;2.67;2.57;;;;;;;15.79;59.53;95279.22;4992496;28;20459;-77
2022/10/04 08:58:12;;;;;;;3.47;2.50;;;;;;;16.08;58.39;95282.44;4998193;28;20486;-76
2022/10/04 09:01:04;;;;;;;3.87;3.37;;;;;;;16.29;57.95;95281.25;5030778;28;21029;-76
2022/10/04 09:04:21;;;;;;;8.10;2.80;;;;;;;16.36;55.41;95269.88;5028616;28;20464;-77
2022/10/04 09:06:57;;;;;;;3.57;3.10;;;;;;;16.43;56.52;95280.66;4952235;28;20459;-77
2022/10/04 09:09:45;;;;;;;3.13;2.83;;;;;;;16.18;56.93;95277.03;4952578;28;20462;-77
2022/10/04 09:12:43;;;;;;;3.07;2.87;;;;;;;15.90;57.79;95273.69;4952311;28;20486;-77
2022/10/04 09:15:40;;;;;;;2.97;2.77;;;;;;;15.97;58.41;95282.69;4952411;28;20540;-76
2022/10/04 09:18:22;;;;;;;3.80;3.40;;;;;;;16.04;57.66;95281.06;4895177;29;20491;-77
2022/10/04 09:20:57;;;;;;;3.60;3.07;;;;;;;15.97;57.10;95284.50;4895245;29;20535;-77
2022/10/04 09:24:08;;;;;;;8.50;3.10;;;;;;;15.89;56.52;95290.53;4895169;29;20485;-77
2022/10/04 09:26:44;;;;;;;3.03;2.83;;;;;;;15.92;57.50;95292.91;4839478;29;20459;-78
2022/10/04 09:29:34;;;;;;;2.80;2.50;;;;;;;16.07;56.60;95291.34;4808589;29;20842;-76
2022/10/04 09:32:30;;;;;;;3.50;3.30;;;;;;;16.27;57.94;95301.78;4866951;29;20445;-77
2022/10/04 09:35:42;;;;;;;2.93;2.73;;;;;;;16.37;57.37;95308.63;4895206;29;20867;-77
2022/10/04 09:38:42;;;;;;;2.70;2.50;;;;;;;16.63;56.87;95299.84;4821308;29;20501;-77
2022/10/04 09:41:33;;;;;;;3.43;3.23;;;;;;;16.62;55.52;95290.22;4821143;29;20512;-77
2022/10/04 09:44:44;;;;;;;4.50;2.97;;;;;;;16.41;56.63;95294.06;4907289;29;20537;-76
2022/10/04 09:47:30;;;;;;;7.53;3.07;;;;;;;16.35;57.34;95293.88;4913549;29;20550;-76
2022/10/04 09:50:30;;;;;;;3.13;2.93;;;;;;;16.34;57.07;95287.75;4913660;29;21078;-76
2022/10/04 09:53:11;;;;;;;4.13;3.20;;;;;;;16.24;59.44;95283.53;4839241;29;20459;-77
2022/10/04 09:55:57;;;;;;;3.13;2.87;;;;;;;16.21;57.62;95289.16;4821575;29;20450;-76
2022/10/04 09:58:45;;;;;;;3.33;3.13;;;;;;;16.29;58.71;95291.84;4857572;29;20537;-77
2022/10/04 10:01:23;;;;;;;4.33;2.87;;;;;;;16.40;57.30;95291.59;4915458;29;20455;-77
2022/10/04 10:04:23;;;;;;;3.60;3.10;;;;;;;16.36;56.36;95293.72;4932599;29;20490;-77
2022/10/04 10:07:28;;;;;;;4.93;3.13;;;;;;;16.31;57.32;95289.88;4875907;29;20503;-77
2022/10/04 10:16:00;;;;;;;3.30;3.10;;;;;;;16.27;58.60;95301.78;4872875;29;20514;-80
2022/10/04 10:18:41;;;;;;;2.90;2.70;;;;;;;16.27;57.42;95304.41;4876026;29;20886;-78
2022/10/04 10:21:29;;;;;;;3.37;2.47;;;;;;;16.34;58.57;95298.34;4874913;29;21074;-79
2022/10/04 10:24:22;;;;;;;9.47;3.27;;;;;;;16.45;57.16;95302.53;4858225;29;20498;-78
2022/10/04 10:27:02;;;;;;;3.33;2.23;;;;;;;16.63;55.93;95303.31;4857788;29;21104;-77
2022/10/04 10:30:06;;;;;;;3.40;3.20;;;;;;;16.67;56.15;95302.03;4852204;29;20463;-77
2022/10/04 10:33:00;;;;;;;3.10;2.90;;;;;;;16.74;55.26;95304.91;4853840;29;20463;-77
2022/10/04 10:35:43;;;;;;;3.73;3.43;;;;;;;16.64;55.47;95302.34;4857467;29;20900;-77
2022/10/04 10:38:50;;;;;;;3.43;3.23;;;;;;;16.42;56.90;95300.19;4857146;29;20549;-77
2022/10/04 10:45:08;;;;;;;3.20;2.90;;;;;;;15.93;59.62;95299.84;4782061;30;20449;-77
2022/10/04 10:47:45;;;;;;;3.90;3.50;;;;;;;15.92;59.02;95298.19;4862248;29;20534;-77
2022/10/04 10:54:04;;;;;;;4.17;3.50;;;;;;;15.91;59.67;95304.47;4879550;29;20469;-77
2022/10/04 10:56:42;;;;;;;3.80;3.50;;;;;;;15.75;59.85;95309.59;4840018;29;20463;-78
2022/10/04 10:59:50;;;;;;;3.40;3.20;;;;;;;15.87;62.40;95299.63;4853850;29;20978;-78
2022/10/04 11:02:55;;;;;;;4.13;3.73;;;;;;;16.04;58.79;95298.78;4912857;29;20451;-77
2022/10/04 11:05:57;;;;;;;3.10;2.87;;;;;;;16.10;58.27;95299.00;4842508;29;20486;-77
2022/10/04 11:08:56;;;;;;;3.80;3.43;;;;;;;16.20;57.63;95300.72;4787786;30;20472;-77
2022/10/04 11:11:48;;;;;;;4.20;3.23;;;;;;;16.37;58.16;95298.03;4771412;30;20477;-77
2022/10/04 11:17:58;;;;;;;4.00;3.47;;;;;;;16.36;57.17;95300.84;4745455;30;20466;-76
2022/10/04 11:21:10;;;;;;;3.87;3.57;;;;;;;16.22;58.18;95306.69;4802069;29;20488;-77
2022/10/04 11:24:29;;;;;;;4.17;3.77;;;;;;;16.03;57.32;95294.47;4751296;30;20946;-77
2022/10/04 11:27:11;;;;;;;4.50;2.80;;;;;;;16.06;58.20;95302.94;4734191;30;20458;-77
2022/10/04 11:29:54;;;;;;;4.47;3.30;;;;;;;16.15;59.38;95306.47;4734108;30;20444;-77
2022/10/04 11:32:54;;;;;;;5.63;4.30;;;;;;;16.10;59.04;95306.94;4739392;29;20476;-77
2022/10/04 11:35:54;;;;;;;4.13;3.70;;;;;;;16.16;59.32;95307.28;4805508;29;20637;-76
2022/10/04 11:38:47;;;;;;;6.17;3.40;;;;;;;16.34;57.88;95316.88;4804922;29;21004;-76
2022/10/04 11:41:23;;;;;;;3.60;3.20;;;;;;;16.47;58.61;95308.50;4813224;29;20978;-77
2022/10/04 11:44:20;;;;;;;3.40;3.20;;;;;;;16.66;58.67;95308.34;4860234;29;20465;-76
2022/10/04 11:46:53;;;;;;;3.60;3.30;;;;;;;16.76;56.39;95312.69;4916117;29;20445;-76
2022/10/04 11:49:34;;;;;;;3.30;3.03;;;;;;;16.78;56.50;95316.88;4916442;29;20954;-76
2022/10/04 11:52:45;;;;;;;4.50;3.77;;;;;;;16.71;56.72;95311.34;4968753;28;20488;-76
2022/10/04 11:55:42;;;;;;;3.67;3.37;;;;;;;16.69;57.10;95312.50;4994883;28;20459;-76
2022/10/04 11:58:17;;;;;;;3.73;3.43;;;;;;;16.61;55.82;95310.59;4972257;28;20846;-77
2022/10/04 12:01:19;;;;;;;4.70;3.70;;;;;;;16.62;56.95;95317.56;4992970;28;20439;-77
2022/10/04 12:04:12;;;;;;;3.00;2.70;;;;;;;16.66;57.71;95315.47;4992716;28;20455;-76
2022/10/04 12:06:53;;;;;;;16.50;3.23;;;;;;;16.69;56.07;95317.78;4992995;28;20455;-76
2022/10/04 12:09:25;;;;;;;3.47;3.17;;;;;;;16.63;56.04;95307.78;4992250;28;20519;-76
2022/10/04 12:12:37;;;;;;;3.27;3.07;;;;;;;16.50;56.84;95310.88;4960047;28;20445;-77
2022/10/04 12:15:37;;;;;;;5.03;3.53;;;;;;;16.33;56.59;95312.56;4992686;28;20546;-77
2022/10/04 12:18:37;;;;;;;4.57;3.63;;;;;;;16.17;57.56;95316.91;5011395;28;20574;-77
2022/10/04 12:21:27;;;;;;;7.97;3.83;;;;;;;16.06;57.21;95317.97;5012124;28;20442;-76
2022/10/04 12:24:18;;;;;;;4.77;3.60;;;;;;;16.09;58.01;95315.03;5012036;28;20936;-76
2022/10/04 12:27:09;;;;;;;3.53;3.33;;;;;;;16.10;58.13;95306.09;5011849;28;20458;-76
2022/10/04 12:30:20;;;;;;;4.10;3.80;;;;;;;16.20;58.28;95298.09;4963603;28;20466;-77
2022/10/04 12:33:01;;;;;;;3.00;2.80;;;;;;;16.23;56.84;95305.72;4953236;29;20462;-77
2022/10/04 12:35:41;;;;;;;6.60;3.40;;;;;;;16.21;58.58;95310.34;4994306;28;20514;-77
2022/10/04 12:38:36;;;;;;;3.97;3.67;;;;;;;16.17;57.37;95311.59;5030675;28;20492;-77
2022/10/04 12:41:11;;;;;;;3.73;3.43;;;;;;;16.21;57.52;95305.88;5029540;28;20542;-77
2022/10/04 12:46:50;;;;;;;4.23;3.53;;;;;;;16.25;57.59;95312.53;5030818;28;20443;-77
2022/10/04 12:49:29;;;;;;;3.47;3.17;;;;;;;16.34;56.33;95316.03;5030585;28;20450;-77
2022/10/04 12:52:07;;;;;;;3.50;3.20;;;;;;;16.42;56.88;95308.16;5032344;28;20478;-77
2022/10/04 12:54:42;;;;;;;4.10;3.80;;;;;;;16.42;56.40;95310.78;5032503;28;20445;-77
2022/10/04 12:57:33;;;;;;;4.40;3.40;;;;;;;16.36;55.78;95314.91;5030729;28;20457;-77
2022/10/04 13:00:13;;;;;;;3.53;3.30;;;;;;;16.30;56.61;95312.06;5030528;28;20484;-78
2022/10/04 13:03:01;;;;;;;3.27;3.07;;;;;;;16.40;57.05;95323.38;5030336;28;20540;-78